Time;durP1;ratioP1;P1;durP2;ratioP2;P2;SDS_P1;SDS_P2;PMS_P1;PMS_P2;Temp;Humidity;BMP_temperature;BMP_pressure;BME280_temperature;BME280_humidity;BME280_pressure;Samples;Min_cycle;Max_cycle;Signal;HPM_P1;HPM_P2
2021/05/14 00:01:08;;;;;;;3.00;2.65;;;11.40;99.90;;;;;;4987897;28;20674;-63
2021/05/14 00:03:34;;;;;;;4.97;2.58;;;11.40;99.90;;;;;;4985499;28;20553;-64
2021/05/14 00:05:59;;;;;;;3.08;2.38;;;11.40;99.90;;;;;;4986635;28;20188;-65
2021/05/14 00:08:25;;;;;;;3.25;2.30;;;11.40;99.90;;;;;;4984984;28;20196;-64
2021/05/14 00:10:51;;;;;;;2.72;2.30;;;11.40;99.90;;;;;;4987098;28;20188;-64
2021/05/14 00:13:17;;;;;;;3.15;2.50;;;11.50;99.90;;;;;;4986243;28;20623;-64
2021/05/14 00:15:43;;;;;;;3.42;2.55;;;11.50;99.90;;;;;;4986452;28;20204;-64
2021/05/14 00:18:08;;;;;;;3.10;2.55;;;11.50;99.90;;;;;;4986419;28;20219;-63
2021/05/14 00:20:34;;;;;;;2.47;2.28;;;11.40;99.90;;;;;;4985270;28;20632;-64
2021/05/14 00:22:59;;;;;;;3.05;2.65;;;11.30;99.90;;;;;;4986952;28;20530;-63
2021/05/14 00:25:25;;;;;;;5.88;3.13;;;11.30;99.90;;;;;;4987408;28;20199;-63
2021/05/14 00:27:51;;;;;;;3.53;2.10;;;11.30;99.90;;;;;;4986282;28;20180;-64
2021/05/14 00:30:17;;;;;;;3.30;2.43;;;11.20;99.90;;;;;;4987124;28;20227;-62
2021/05/14 00:32:44;;;;;;;3.15;2.22;;;11.30;99.90;;;;;;4985428;28;20207;-65
2021/05/14 00:35:10;;;;;;;3.88;2.03;;;11.30;99.90;;;;;;4986958;28;20203;-63
2021/05/14 00:37:36;;;;;;;3.67;2.88;;;11.30;99.90;;;;;;4987166;28;20180;-65
2021/05/14 00:40:03;;;;;;;2.88;2.20;;;11.40;99.90;;;;;;4986358;28;20655;-64
2021/05/14 00:42:29;;;;;;;3.55;2.40;;;11.30;99.90;;;;;;4985079;28;20208;-65
2021/05/14 00:44:56;;;;;;;3.03;2.45;;;11.30;99.90;;;;;;4986235;28;20223;-65
2021/05/14 00:47:22;;;;;;;3.40;2.17;;;11.30;99.90;;;;;;4986928;28;20259;-63
2021/05/14 00:49:48;;;;;;;3.45;2.75;;;11.20;99.90;;;;;;4985298;28;20274;-63
2021/05/14 00:52:16;;;;;;;4.97;2.72;;;11.20;99.90;;;;;;4986679;28;20200;-63
2021/05/14 00:54:43;;;;;;;3.58;2.80;;;11.10;99.90;;;;;;4985031;28;20184;-63
2021/05/14 00:57:12;;;;;;;3.57;2.77;;;11.10;99.90;;;;;;4985324;28;20655;-64
2021/05/14 00:59:38;;;;;;;2.28;1.90;;;11.10;99.90;;;;;;4985762;28;20177;-64
2021/05/14 01:02:05;;;;;;;2.28;1.92;;;11.10;99.90;;;;;;4987019;28;20249;-62
2021/05/14 01:04:31;;;;;;;2.83;2.15;;;11.10;99.90;;;;;;4986198;28;20186;-65
2021/05/14 01:06:57;;;;;;;2.95;2.25;;;11.00;99.90;;;;;;4987149;28;20180;-65
2021/05/14 01:09:22;;;;;;;1.98;1.77;;;11.00;99.90;;;;;;4986536;28;20220;-63
2021/05/14 01:11:49;;;;;;;2.85;2.20;;;11.00;99.90;;;;;;4986236;28;20188;-64
2021/05/14 01:14:16;;;;;;;2.85;2.22;;;10.90;99.90;;;;;;4986257;28;20184;-63
2021/05/14 01:16:41;;;;;;;3.65;2.15;;;10.90;99.90;;;;;;4984955;28;20848;-63
2021/05/14 01:19:07;;;;;;;3.25;2.15;;;10.90;99.90;;;;;;4984811;28;20188;-65
2021/05/14 01:21:36;;;;;;;2.47;2.10;;;10.80;99.90;;;;;;4985167;28;20758;-63
2021/05/14 01:24:03;;;;;;;2.70;2.33;;;10.80;99.90;;;;;;4985877;28;20678;-65
2021/05/14 01:26:29;;;;;;;2.95;2.42;;;10.80;99.90;;;;;;4986541;28;20184;-63
2021/05/14 01:28:55;;;;;;;2.83;2.47;;;10.80;99.90;;;;;;4986101;28;20640;-65
2021/05/14 01:31:23;;;;;;;3.07;2.60;;;10.80;99.90;;;;;;4984935;28;20191;-65
2021/05/14 01:33:49;;;;;;;2.95;2.25;;;10.80;99.90;;;;;;4985468;28;20235;-64
2021/05/14 01:36:16;;;;;;;2.70;2.03;;;10.80;99.90;;;;;;4986483;28;20196;-63
2021/05/14 01:38:41;;;;;;;3.58;2.63;;;10.80;99.90;;;;;;4986176;28;20646;-63
2021/05/14 01:41:07;;;;;;;2.40;1.90;;;10.80;99.90;;;;;;4986089;28;20200;-64
2021/05/14 01:43:33;;;;;;;2.67;2.00;;;10.80;99.90;;;;;;4985400;28;20546;-65
2021/05/14 01:46:00;;;;;;;3.88;2.60;;;10.80;99.90;;;;;;4986088;28;20263;-64
2021/05/14 01:48:26;;;;;;;2.83;2.30;;;10.80;99.90;;;;;;4985545;28;20180;-65
2021/05/14 01:50:51;;;;;;;3.27;2.47;;;10.90;99.90;;;;;;4986041;28;20184;-64
2021/05/14 01:53:17;;;;;;;2.92;2.35;;;10.80;99.90;;;;;;4985515;28;20211;-64
2021/05/14 01:55:43;;;;;;;2.53;2.17;;;10.90;99.90;;;;;;4984990;28;20595;-64
2021/05/14 01:58:08;;;;;;;3.33;2.53;;;10.90;99.90;;;;;;4985665;28;20199;-64
2021/05/14 02:00:35;;;;;;;3.55;2.35;;;11.00;99.90;;;;;;4984274;28;20299;-64
2021/05/14 02:03:01;;;;;;;2.53;2.20;;;11.00;99.90;;;;;;4984435;28;20203;-64
2021/05/14 02:05:27;;;;;;;3.37;2.70;;;11.00;99.90;;;;;;4985266;28;20186;-64
2021/05/14 02:07:55;;;;;;;3.00;2.40;;;11.00;99.90;;;;;;4983965;28;20180;-62
2021/05/14 02:10:22;;;;;;;2.42;2.22;;;11.10;99.90;;;;;;4985602;28;20188;-64
2021/05/14 02:12:49;;;;;;;4.33;2.83;;;11.20;99.90;;;;;;4985101;28;20200;-64
2021/05/14 02:15:15;;;;;;;2.90;2.58;;;11.20;99.90;;;;;;4983632;28;20195;-65
2021/05/14 02:17:40;;;;;;;3.40;2.60;;;11.20;99.90;;;;;;4984038;28;20223;-64
2021/05/14 02:20:07;;;;;;;2.53;2.13;;;11.10;99.90;;;;;;4985148;28;20283;-64
2021/05/14 02:22:33;;;;;;;2.53;2.23;;;11.20;99.90;;;;;;4983670;28;20199;-63
2021/05/14 02:24:59;;;;;;;4.05;3.08;;;11.10;99.90;;;;;;4984543;28;20176;-64
2021/05/14 02:27:25;;;;;;;3.07;2.77;;;11.10;99.90;;;;;;4983921;28;20548;-64
2021/05/14 02:29:51;;;;;;;3.70;2.35;;;11.10;99.90;;;;;;4985100;28;20187;-62
2021/05/14 02:32:17;;;;;;;3.20;2.60;;;11.10;99.90;;;;;;4984727;28;20200;-64
2021/05/14 02:34:43;;;;;;;2.47;2.20;;;11.10;99.90;;;;;;4983349;28;20187;-62
2021/05/14 02:37:09;;;;;;;3.63;2.50;;;11.10;99.90;;;;;;4983834;28;20223;-64
2021/05/14 02:39:34;;;;;;;4.03;2.70;;;11.00;99.90;;;;;;4984882;28;20240;-64
2021/05/14 02:42:01;;;;;;;3.00;2.53;;;11.00;99.90;;;;;;4983049;28;20208;-62
2021/05/14 02:44:26;;;;;;;3.10;2.80;;;11.00;99.90;;;;;;4984658;28;20223;-61
2021/05/14 02:46:52;;;;;;;2.40;2.07;;;10.90;99.90;;;;;;4984110;28;20220;-64
2021/05/14 02:49:18;;;;;;;2.58;2.38;;;10.90;99.90;;;;;;4985232;28;20188;-63
2021/05/14 02:51:44;;;;;;;2.83;2.40;;;10.90;99.90;;;;;;4985498;28;20650;-64
2021/05/14 02:54:10;;;;;;;3.70;2.70;;;10.80;99.90;;;;;;4985017;28;20188;-64
2021/05/14 02:56:35;;;;;;;3.80;2.63;;;10.80;99.90;;;;;;4985130;28;20215;-63
2021/05/14 02:59:01;;;;;;;3.13;2.53;;;10.80;99.90;;;;;;4984859;28;20184;-64
2021/05/14 03:01:27;;;;;;;3.22;2.33;;;10.80;99.90;;;;;;4983127;28;20224;-64
2021/05/14 03:03:52;;;;;;;2.73;2.33;;;10.80;99.90;;;;;;4983980;28;20243;-64
2021/05/14 03:06:18;;;;;;;3.87;2.73;;;10.80;99.90;;;;;;4983599;28;20196;-65
2021/05/14 03:08:44;;;;;;;3.75;2.88;;;10.90;99.90;;;;;;4984759;28;20184;-64
2021/05/14 03:11:11;;;;;;;3.58;2.47;;;10.90;99.90;;;;;;4985059;28;20261;-64
2021/05/14 03:13:36;;;;;;;3.22;2.47;;;10.90;99.90;;;;;;4984528;28;20212;-62
2021/05/14 03:16:02;;;;;;;2.85;2.47;;;10.90;99.90;;;;;;4986469;28;20563;-65
2021/05/14 03:18:28;;;;;;;3.27;2.10;;;10.90;99.90;;;;;;4988471;28;20298;-63
2021/05/14 03:20:55;;;;;;;2.07;1.87;;;10.90;99.90;;;;;;4987834;28;20888;-64
2021/05/14 03:23:20;;;;;;;2.65;2.10;;;10.90;99.90;;;;;;4986216;28;20208;-64
2021/05/14 03:25:46;;;;;;;2.13;1.93;;;10.90;99.90;;;;;;4986376;28;20185;-62
2021/05/14 03:28:50;;;;;;;3.13;2.50;;;11.00;99.90;;;;;;4992050;28;20255;-64
2021/05/14 03:31:36;;;;;;;3.03;2.38;;;11.00;99.90;;;;;;4967615;28;20227;-62
2021/05/14 03:34:02;;;;;;;3.67;2.25;;;10.90;99.90;;;;;;4990362;28;20200;-62
2021/05/14 03:43:04;;;;;;;4.07;3.20;;;10.90;99.90;;;;;;4992448;28;20235;-63
2021/05/14 03:46:17;;;;;;;4.73;2.67;;;10.90;99.90;;;;;;4990194;28;20177;-62
2021/05/14 03:49:40;;;;;;;3.90;2.60;;;10.80;99.90;;;;;;4990224;28;20199;-65
2021/05/14 03:52:12;;;;;;;4.70;2.77;;;10.90;99.90;;;;;;4993726;28;20215;-64
2021/05/14 03:54:40;;;;;;;4.50;2.93;;;10.90;99.90;;;;;;4991384;28;20192;-64
2021/05/14 03:57:08;;;;;;;4.50;3.07;;;10.90;99.90;;;;;;4989544;28;20242;-64
2021/05/14 03:59:36;;;;;;;3.63;2.80;;;10.90;99.90;;;;;;4992862;28;20699;-64
2021/05/14 04:02:01;;;;;;;3.77;2.77;;;11.00;99.90;;;;;;4989764;28;20562;-62
2021/05/14 04:05:15;;;;;;;4.05;3.25;;;11.00;99.90;;;;;;4990446;28;20185;-64
2021/05/14 04:07:50;;;;;;;2.90;2.50;;;10.90;99.90;;;;;;4991095;28;20259;-64
2021/05/14 04:10:30;;;;;;;2.83;2.45;;;10.80;99.90;;;;;;4991025;28;20196;-62
2021/05/14 04:19:12;;;;;;;3.63;3.20;;;11.00;99.90;;;;;;4990754;28;20238;-64
2021/05/14 04:22:19;;;;;;;3.77;2.70;;;11.10;99.90;;;;;;4990608;28;20203;-63
2021/05/14 04:24:54;;;;;;;2.80;2.50;;;11.10;99.90;;;;;;4989274;28;20238;-64
2021/05/14 04:27:20;;;;;;;3.03;2.57;;;11.10;99.90;;;;;;4992540;28;20600;-62
2021/05/14 04:33:20;;;;;;;3.10;2.50;;;11.10;99.90;;;;;;4987964;28;20270;-64
2021/05/14 04:36:43;;;;;;;3.90;3.37;;;11.20;99.90;;;;;;4992030;28;20591;-65
2021/05/14 04:39:16;;;;;;;2.90;2.47;;;11.30;99.90;;;;;;4961934;28;20223;-64
2021/05/14 04:41:42;;;;;;;3.87;3.13;;;11.40;99.90;;;;;;4989067;28;20270;-64
2021/05/14 04:44:22;;;;;;;3.17;2.83;;;11.50;99.90;;;;;;4990906;28;20200;-63
2021/05/14 04:46:49;;;;;;;3.28;3.00;;;11.50;99.90;;;;;;4993357;28;20196;-64
2021/05/14 04:49:55;;;;;;;3.67;3.35;;;11.60;99.90;;;;;;4992853;28;20243;-63
2021/05/14 04:52:32;;;;;;;3.75;3.20;;;11.70;99.90;;;;;;4990969;28;20216;-62
2021/05/14 04:54:58;;;;;;;5.53;3.58;;;11.80;99.90;;;;;;4989292;28;20847;-62
2021/05/14 04:57:48;;;;;;;3.85;2.85;;;11.80;99.90;;;;;;4990239;28;20208;-63
2021/05/14 05:00:38;;;;;;;3.83;2.90;;;11.90;99.90;;;;;;4990910;28;20663;-63
2021/05/14 05:03:07;;;;;;;4.18;3.33;;;12.00;99.90;;;;;;4993186;28;20199;-63
2021/05/14 05:08:24;;;;;;;4.63;3.40;;;12.10;99.90;;;;;;5026332;28;20771;-77
2021/05/14 05:10:49;;;;;;;4.95;3.65;;;12.10;99.90;;;;;;5027928;28;20191;-78
2021/05/14 05:13:16;;;;;;;3.80;3.40;;;12.20;99.90;;;;;;5028192;28;20290;-78
2021/05/14 05:15:41;;;;;;;3.72;3.22;;;12.20;99.90;;;;;;5027239;28;20188;-77
2021/05/14 05:18:07;;;;;;;4.97;3.55;;;12.40;99.90;;;;;;5006820;28;20560;-78
2021/05/14 05:20:35;;;;;;;4.07;3.40;;;12.30;99.90;;;;;;5007684;28;20239;-77
2021/05/14 05:23:03;;;;;;;3.45;3.10;;;12.40;99.90;;;;;;5007561;28;20240;-76
2021/05/14 05:25:29;;;;;;;4.95;3.45;;;12.40;99.90;;;;;;5006382;28;20188;-78
2021/05/14 05:27:54;;;;;;;6.22;3.65;;;12.50;99.90;;;;;;5006811;28;20237;-78
2021/05/14 05:30:22;;;;;;;5.43;3.78;;;12.50;99.90;;;;;;5007709;28;20222;-78
2021/05/14 05:32:47;;;;;;;5.97;3.40;;;12.50;99.90;;;;;;5007236;28;20191;-78
2021/05/14 05:35:13;;;;;;;4.25;3.85;;;12.60;99.90;;;;;;5006859;28;20191;-77
2021/05/14 05:37:39;;;;;;;5.15;4.00;;;12.60;99.90;;;;;;5006628;28;20210;-78
2021/05/14 05:40:08;;;;;;;6.30;4.05;;;12.60;99.90;;;;;;5006737;28;20266;-78
2021/05/14 05:42:36;;;;;;;5.80;3.80;;;12.70;99.90;;;;;;5022271;28;20191;-78
2021/05/14 05:45:03;;;;;;;6.80;5.00;;;12.70;99.90;;;;;;5007487;28;20187;-77
2021/05/14 05:47:32;;;;;;;6.03;4.32;;;12.70;99.90;;;;;;5007574;28;20261;-78
2021/05/14 05:49:58;;;;;;;6.78;4.90;;;12.60;99.90;;;;;;5007462;28;20219;-78
2021/05/14 05:52:24;;;;;;;6.72;4.90;;;12.50;99.90;;;;;;5006302;28;20561;-78
2021/05/14 05:54:49;;;;;;;7.05;5.30;;;12.50;99.90;;;;;;5007642;28;20194;-78
2021/05/14 05:57:15;;;;;;;6.00;4.90;;;12.70;99.90;;;;;;5006753;28;20215;-77
2021/05/14 05:59:41;;;;;;;11.40;6.85;;;12.80;99.90;;;;;;5007524;28;20180;-78
2021/05/14 06:02:07;;;;;;;9.57;6.18;;;13.00;99.90;;;;;;5007266;28;20718;-78
2021/05/14 06:04:34;;;;;;;8.70;6.07;;;13.20;99.90;;;;;;5006960;28;20172;-78
2021/05/14 06:06:59;;;;;;;9.30;5.72;;;13.50;99.90;;;;;;5007224;28;20780;-77
2021/05/14 06:09:25;;;;;;;9.88;5.45;;;13.60;99.90;;;;;;5006007;28;20254;-80
2021/05/14 06:11:51;;;;;;;6.55;5.10;;;13.70;99.90;;;;;;5008609;28;20266;-77
2021/05/14 06:14:17;;;;;;;7.80;5.38;;;13.80;99.90;;;;;;5007177;28;20626;-77
2021/05/14 06:16:43;;;;;;;7.55;6.03;;;13.90;99.90;;;;;;5005801;28;20238;-78
2021/05/14 06:19:14;;;;;;;10.02;5.90;;;14.10;99.90;;;;;;5007034;28;20670;-78
2021/05/14 06:21:47;;;;;;;7.60;5.30;;;14.20;99.90;;;;;;5006825;28;20199;-77
2021/05/14 06:24:14;;;;;;;7.50;4.95;;;14.30;99.90;;;;;;5006691;28;20191;-80
2021/05/14 06:26:41;;;;;;;7.53;4.55;;;14.30;99.90;;;;;;5003049;28;20200;-78
2021/05/14 06:29:06;;;;;;;6.20;4.10;;;14.30;99.90;;;;;;5003450;28;20523;-78
2021/05/14 06:31:32;;;;;;;6.13;4.28;;;14.30;99.90;;;;;;5002005;28;20275;-76
2021/05/14 06:33:58;;;;;;;8.27;5.30;;;14.20;99.90;;;;;;5000745;28;20705;-76
2021/05/14 06:36:23;;;;;;;6.97;4.78;;;14.10;99.90;;;;;;5003065;28;20568;-77
2021/05/14 06:38:49;;;;;;;6.85;4.95;;;14.00;99.90;;;;;;5003724;28;20595;-76
2021/05/14 06:41:15;;;;;;;7.93;5.15;;;13.90;99.90;;;;;;5003918;28;20556;-77
2021/05/14 06:43:40;;;;;;;8.13;5.95;;;14.00;99.90;;;;;;5003875;28;20184;-77
2021/05/14 06:46:06;;;;;;;9.48;5.82;;;14.10;99.90;;;;;;5003814;28;20564;-77
2021/05/14 06:48:32;;;;;;;10.07;6.00;;;14.10;99.90;;;;;;5003075;28;20258;-76
2021/05/14 06:50:57;;;;;;;6.55;4.93;;;14.10;99.90;;;;;;5006071;28;20246;-77
2021/05/14 06:53:24;;;;;;;8.50;5.50;;;14.20;99.90;;;;;;5006715;28;20740;-76
2021/05/14 06:55:50;;;;;;;7.75;4.85;;;14.20;99.90;;;;;;5007406;28;20745;-77
2021/05/14 06:58:15;;;;;;;8.85;6.00;;;14.20;99.90;;;;;;5005955;28;20676;-77
2021/05/14 07:00:41;;;;;;;7.75;5.47;;;14.20;99.90;;;;;;5006193;28;20238;-76
2021/05/14 07:03:07;;;;;;;10.82;6.75;;;14.10;99.90;;;;;;5005755;28;20171;-77
2021/05/14 07:05:32;;;;;;;9.30;6.05;;;14.10;99.90;;;;;;5007037;28;20187;-77
2021/05/14 07:07:58;;;;;;;7.75;5.10;;;14.40;99.90;;;;;;5007570;28;20278;-77
2021/05/14 07:10:24;;;;;;;8.25;5.30;;;14.60;99.90;;;;;;5005827;28;20190;-77
2021/05/14 07:12:50;;;;;;;9.48;5.97;;;14.60;99.90;;;;;;5004298;28;20175;-77
2021/05/14 07:15:16;;;;;;;9.70;5.20;;;14.60;99.90;;;;;;5004070;28;20768;-76
2021/05/14 07:17:41;;;;;;;7.63;5.25;;;14.50;99.90;;;;;;5005853;28;20211;-76
2021/05/14 07:20:08;;;;;;;10.90;5.35;;;14.60;99.90;;;;;;5005623;28;20199;-77
2021/05/14 07:22:39;;;;;;;7.03;4.68;;;14.70;99.90;;;;;;5006123;28;20183;-75
2021/05/14 07:25:05;;;;;;;8.00;5.95;;;15.00;99.90;;;;;;5005689;28;20473;-76
2021/05/14 07:27:31;;;;;;;7.88;5.03;;;15.00;99.90;;;;;;5005392;28;20202;-77
2021/05/14 07:29:56;;;;;;;9.23;5.53;;;15.10;99.90;;;;;;5006408;28;20203;-76
2021/05/14 07:32:22;;;;;;;7.45;5.82;;;15.40;99.90;;;;;;5004914;28;20179;-76
2021/05/14 07:34:47;;;;;;;7.43;5.38;;;15.50;99.90;;;;;;5005163;28;20198;-76
2021/05/14 07:37:14;;;;;;;6.80;4.72;;;15.50;99.90;;;;;;5004028;28;20205;-77
2021/05/14 07:39:39;;;;;;;7.63;5.05;;;15.50;99.90;;;;;;5005686;28;20657;-77
2021/05/14 07:42:06;;;;;;;8.13;5.30;;;15.60;99.90;;;;;;5006790;28;20176;-76
2021/05/14 07:44:32;;;;;;;6.68;5.15;;;15.70;99.90;;;;;;5006653;28;20215;-77
2021/05/14 07:46:57;;;;;;;6.78;5.18;;;16.00;99.90;;;;;;5008479;28;20334;-78
2021/05/14 07:49:23;;;;;;;6.53;4.93;;;16.20;99.90;;;;;;5005443;28;20187;-77
2021/05/14 07:51:49;;;;;;;7.13;4.35;;;15.90;99.90;;;;;;5006420;28;20262;-78
2021/05/14 07:54:14;;;;;;;7.63;4.70;;;16.00;99.90;;;;;;5005511;28;20187;-77
2021/05/14 07:56:40;;;;;;;7.18;5.40;;;15.70;99.90;;;;;;5005510;28;20209;-76
2021/05/14 07:59:06;;;;;;;7.82;4.60;;;15.80;99.90;;;;;;5005157;28;20182;-76
2021/05/14 08:01:32;;;;;;;9.10;5.05;;;16.00;99.90;;;;;;5005535;28;20916;-77
2021/05/14 08:03:58;;;;;;;6.70;4.75;;;16.20;99.90;;;;;;5006556;28;20202;-76
2021/05/14 08:06:23;;;;;;;7.90;5.22;;;16.30;99.90;;;;;;5004937;28;20704;-78
2021/05/14 08:08:49;;;;;;;5.97;4.38;;;16.30;99.90;;;;;;5005430;28;20462;-77
2021/05/14 08:11:15;;;;;;;8.90;5.38;;;16.30;99.90;;;;;;5006984;28;20262;-78
2021/05/14 08:13:40;;;;;;;6.65;4.30;;;16.20;99.90;;;;;;5006628;28;20278;-77
2021/05/14 08:16:06;;;;;;;6.95;4.90;;;16.30;99.90;;;;;;5005619;28;20598;-77
2021/05/14 08:18:32;;;;;;;8.25;4.57;;;16.50;99.90;;;;;;5006669;28;20192;-76
2021/05/14 08:20:58;;;;;;;6.28;4.70;;;16.30;99.90;;;;;;5005176;28;20207;-78
2021/05/14 08:23:23;;;;;;;5.88;4.70;;;16.30;99.90;;;;;;5007365;28;20187;-77
2021/05/14 08:25:50;;;;;;;6.28;4.20;;;16.30;99.90;;;;;;5007842;28;20211;-76
2021/05/14 08:28:17;;;;;;;7.40;4.78;;;16.30;99.90;;;;;;5008806;28;20176;-78
2021/05/14 08:30:45;;;;;;;7.38;4.45;;;16.10;99.90;;;;;;5006883;28;20183;-77
2021/05/14 08:33:11;;;;;;;6.40;4.93;;;16.30;99.90;;;;;;5007741;28;20684;-77
2021/05/14 08:35:37;;;;;;;6.40;4.03;;;16.40;99.90;;;;;;5009604;28;20677;-78
2021/05/14 08:38:05;;;;;;;6.85;4.45;;;16.20;99.90;;;;;;5009308;28;20233;-77
2021/05/14 08:40:31;;;;;;;6.55;4.03;;;16.20;99.90;;;;;;5007432;28;20196;-78
2021/05/14 08:42:56;;;;;;;5.25;3.92;;;16.30;99.90;;;;;;5008796;28;20238;-77
2021/05/14 08:45:22;;;;;;;4.70;3.70;;;16.50;99.90;;;;;;5007196;28;20699;-77
2021/05/14 08:47:49;;;;;;;7.03;4.65;;;16.70;99.90;;;;;;5006709;28;20628;-77
2021/05/14 08:50:15;;;;;;;7.82;4.45;;;16.80;99.90;;;;;;5008215;28;20194;-77
2021/05/14 08:52:42;;;;;;;5.75;3.78;;;16.80;99.90;;;;;;5007645;28;20218;-77
2021/05/14 08:55:10;;;;;;;5.72;4.35;;;16.70;99.90;;;;;;5006765;28;20196;-76
2021/05/14 08:57:38;;;;;;;9.27;4.75;;;16.40;99.90;;;;;;5004731;28;20723;-77
2021/05/14 09:00:05;;;;;;;5.97;4.47;;;16.30;99.90;;;;;;5004789;28;20261;-76
2021/05/14 09:02:33;;;;;;;5.63;3.90;;;16.60;99.90;;;;;;5006098;28;20434;-77
2021/05/14 09:05:29;;;;;;;5.55;3.88;;;16.70;99.90;;;;;;5005060;28;20180;-77
2021/05/14 09:07:56;;;;;;;4.68;3.38;;;16.60;99.90;;;;;;5006309;28;20215;-78
2021/05/14 09:10:27;;;;;;;6.07;4.07;;;16.60;99.90;;;;;;5005832;28;20193;-77
2021/05/14 09:12:53;;;;;;;5.65;3.65;;;16.70;99.90;;;;;;5004142;28;20191;-77
2021/05/14 09:15:18;;;;;;;6.97;4.28;;;16.90;99.90;;;;;;5008525;28;20684;-76
2021/05/14 09:18:06;;;;;;;5.65;4.13;;;16.80;99.90;;;;;;5013018;28;20282;-77
2021/05/14 09:20:41;;;;;;;5.68;3.70;;;16.70;99.90;;;;;;5008004;28;20223;-77
2021/05/14 09:23:15;;;;;;;4.75;3.92;;;16.70;99.90;;;;;;5007849;28;20175;-78
2021/05/14 09:25:54;;;;;;;5.63;3.78;;;16.70;99.90;;;;;;5006880;28;20185;-76
2021/05/14 09:28:28;;;;;;;6.60;4.45;;;16.90;99.90;;;;;;5005895;28;20191;-76
2021/05/14 09:31:09;;;;;;;6.70;4.75;;;16.90;99.90;;;;;;5006336;28;20796;-77
2021/05/14 09:33:37;;;;;;;6.38;4.50;;;17.00;99.90;;;;;;5019915;28;20559;-78
2021/05/14 09:36:08;;;;;;;5.97;4.30;;;17.00;99.90;;;;;;5006005;28;20654;-77
2021/05/14 09:38:47;;;;;;;6.70;4.63;;;17.10;99.90;;;;;;5005721;28;20180;-77
2021/05/14 09:41:30;;;;;;;7.93;5.20;;;17.10;99.90;;;;;;5021036;28;20716;-78
2021/05/14 09:44:09;;;;;;;5.00;3.88;;;17.40;99.90;;;;;;5006197;28;20236;-77
2021/05/14 09:46:44;;;;;;;5.38;3.95;;;17.40;99.90;;;;;;5005625;28;20325;-78
2021/05/14 09:49:11;;;;;;;4.70;3.72;;;17.20;99.90;;;;;;5005844;28;20367;-77
2021/05/14 09:51:57;;;;;;;5.55;3.63;;;17.10;99.90;;;;;;5004159;28;20239;-76
2021/05/14 09:54:24;;;;;;;5.55;3.13;;;17.10;99.90;;;;;;5006213;28;20210;-77
2021/05/14 09:59:55;;;;;;;4.38;3.63;;;17.30;99.90;;;;;;5006296;28;20187;-76
2021/05/14 10:02:29;;;;;;;4.80;3.42;;;17.40;99.90;;;;;;5005962;28;20211;-77
2021/05/14 10:04:55;;;;;;;5.28;3.92;;;17.60;99.90;;;;;;5006174;28;20431;-78
2021/05/14 10:07:24;;;;;;;5.05;3.85;;;17.60;99.90;;;;;;5006539;28;20246;-78
2021/05/14 10:09:53;;;;;;;9.05;4.35;;;17.70;99.90;;;;;;5006014;28;20182;-78
2021/05/14 10:12:20;;;;;;;6.47;4.43;;;17.60;99.90;;;;;;5004257;28;20564;-77
2021/05/14 10:14:46;;;;;;;5.50;3.55;;;17.80;99.90;;;;;;5005897;28;20176;-78
2021/05/14 10:17:12;;;;;;;5.28;3.33;;;17.90;99.90;;;;;;5005961;28;20245;-78
2021/05/14 10:19:39;;;;;;;5.28;3.67;;;17.90;99.90;;;;;;5005415;28;20618;-78
2021/05/14 10:22:06;;;;;;;5.25;3.85;;;18.20;99.90;;;;;;5005216;28;20207;-77
2021/05/14 10:24:50;;;;;;;4.57;3.10;;;18.70;99.90;;;;;;5006196;28;20172;-78
2021/05/14 10:27:22;;;;;;;6.32;3.05;;;18.40;99.90;;;;;;5009092;28;20201;-76
2021/05/14 10:29:51;;;;;;;4.10;2.60;;;18.20;99.90;;;;;;5014138;28;20672;-77
2021/05/14 10:32:43;;;;;;;6.47;3.40;;;18.20;99.90;;;;;;5007972;28;20598;-78
2021/05/14 10:35:13;;;;;;;3.60;2.10;;;18.40;99.90;;;;;;5009235;28;20180;-78
2021/05/14 10:37:49;;;;;;;3.47;2.65;;;18.30;99.90;;;;;;5009677;28;20404;-78
2021/05/14 10:40:37;;;;;;;4.38;2.85;;;18.20;99.90;;;;;;5010392;28;20227;-78
2021/05/14 10:43:12;;;;;;;4.30;3.13;;;18.30;99.90;;;;;;5010457;28;20163;-78
2021/05/14 10:45:41;;;;;;;3.00;2.40;;;18.40;99.90;;;;;;5010455;28;20238;-77
2021/05/14 10:48:21;;;;;;;2.97;2.47;;;18.20;99.90;;;;;;5008327;28;20207;-78
2021/05/14 10:50:59;;;;;;;3.33;2.35;;;18.10;99.90;;;;;;5010234;28;20206;-77
2021/05/14 10:53:35;;;;;;;6.13;3.63;;;18.00;99.90;;;;;;5004982;28;20183;-75
2021/05/14 10:56:09;;;;;;;3.53;2.45;;;18.00;99.90;;;;;;5009501;28;20343;-78
2021/05/14 10:58:47;;;;;;;3.72;2.80;;;18.00;99.90;;;;;;5025283;28;20190;-78
2021/05/14 11:01:36;;;;;;;3.83;2.65;;;17.80;99.90;;;;;;5008853;28;20206;-78
2021/05/14 11:04:38;;;;;;;3.15;2.45;;;17.90;99.90;;;;;;5009919;28;20215;-78
2021/05/14 11:07:04;;;;;;;4.13;2.08;;;18.00;99.90;;;;;;5004158;28;20277;-77
2021/05/14 11:09:29;;;;;;;3.10;2.10;;;17.90;99.90;;;;;;5011125;28;20281;-78
2021/05/14 11:12:00;;;;;;;4.10;2.70;;;18.00;99.90;;;;;;5010671;28;20275;-76
2021/05/14 11:14:38;;;;;;;4.15;2.58;;;18.10;99.90;;;;;;5009539;28;20215;-75
2021/05/14 11:17:08;;;;;;;3.70;2.65;;;18.20;99.90;;;;;;5009445;28;20195;-77
2021/05/14 11:19:47;;;;;;;3.42;2.53;;;18.30;99.90;;;;;;5010726;28;20183;-77
2021/05/14 11:22:14;;;;;;;3.50;2.22;;;18.20;99.90;;;;;;5009433;28;20187;-77
2021/05/14 11:24:47;;;;;;;4.00;2.45;;;17.90;99.90;;;;;;5007805;28;20172;-77
2021/05/14 11:27:30;;;;;;;2.67;2.10;;;17.90;99.90;;;;;;5009057;28;20195;-78
2021/05/14 11:30:00;;;;;;;3.08;2.10;;;17.80;99.90;;;;;;5006757;28;20176;-78
2021/05/14 11:32:32;;;;;;;3.47;2.55;;;17.50;99.90;;;;;;5008442;28;20180;-77
2021/05/14 11:35:10;;;;;;;3.35;2.25;;;17.60;99.90;;;;;;5008837;28;20167;-78
2021/05/14 11:37:50;;;;;;;2.70;2.38;;;17.60;99.90;;;;;;5007730;28;20573;-77
2021/05/14 11:40:19;;;;;;;4.10;2.30;;;17.70;99.90;;;;;;5008366;28;20203;-79
2021/05/14 11:42:56;;;;;;;4.05;3.03;;;17.80;99.90;;;;;;5009472;28;20588;-78
2021/05/14 11:45:24;;;;;;;3.53;2.35;;;17.80;99.90;;;;;;5023066;28;20218;-78
2021/05/14 11:48:00;;;;;;;3.08;2.08;;;18.10;99.90;;;;;;5007759;28;20234;-78
2021/05/14 11:50:34;;;;;;;2.58;1.85;;;18.50;99.90;;;;;;5007582;28;20187;-78
2021/05/14 11:53:03;;;;;;;4.30;2.47;;;18.80;99.90;;;;;;5008680;28;20668;-77
2021/05/14 11:55:29;;;;;;;3.33;2.28;;;18.90;99.90;;;;;;5008528;28;20188;-76
2021/05/14 11:57:58;;;;;;;4.97;2.65;;;18.70;99.90;;;;;;5007949;28;20257;-78
2021/05/14 12:00:32;;;;;;;3.03;2.17;;;18.50;99.90;;;;;;5007937;28;20211;-77
2021/05/14 12:02:59;;;;;;;4.85;2.65;;;18.50;99.90;;;;;;5007534;28;20228;-76
2021/05/14 12:05:26;;;;;;;4.15;2.65;;;18.60;99.90;;;;;;5005715;28;20197;-76
2021/05/14 12:08:19;;;;;;;5.38;3.00;;;18.50;99.90;;;;;;5007396;28;20215;-77
2021/05/14 12:11:01;;;;;;;4.65;3.00;;;18.60;99.90;;;;;;5001982;28;20502;-78
2021/05/14 12:13:29;;;;;;;6.80;3.17;;;18.50;99.90;;;;;;5007356;28;20183;-78
2021/05/14 12:16:01;;;;;;;4.85;3.38;;;18.40;99.90;;;;;;5006443;28;20665;-78
2021/05/14 12:18:28;;;;;;;3.40;2.70;;;18.40;99.90;;;;;;5006671;28;20195;-77
2021/05/14 12:20:56;;;;;;;4.10;2.42;;;18.30;99.90;;;;;;5007355;28;20218;-78
2021/05/14 12:23:24;;;;;;;4.07;2.72;;;18.50;99.90;;;;;;5007312;28;20200;-76
2021/05/14 12:25:57;;;;;;;4.57;2.75;;;18.50;99.90;;;;;;5005766;28;20200;-75
2021/05/14 12:28:44;;;;;;;5.13;3.17;;;18.30;99.90;;;;;;5005243;28;20183;-78
2021/05/14 12:31:22;;;;;;;5.47;3.30;;;18.10;99.90;;;;;;5006475;28;20533;-78
2021/05/14 12:33:51;;;;;;;5.00;3.15;;;18.20;99.90;;;;;;5021359;28;20270;-78
2021/05/14 12:36:38;;;;;;;3.25;2.58;;;18.20;99.90;;;;;;5007343;28;20258;-77
2021/05/14 12:39:08;;;;;;;5.47;2.90;;;18.30;99.90;;;;;;5008108;28;20184;-78
2021/05/14 12:41:41;;;;;;;3.95;2.65;;;18.30;99.90;;;;;;5007997;28;20274;-78
2021/05/14 12:44:25;;;;;;;4.05;3.03;;;18.20;99.90;;;;;;5005560;28;20183;-77
2021/05/14 12:47:03;;;;;;;3.85;2.90;;;18.10;99.90;;;;;;5006585;28;20465;-78
2021/05/14 12:49:31;;;;;;;4.50;3.08;;;18.20;99.90;;;;;;5007528;28;20187;-76
2021/05/14 12:52:06;;;;;;;4.80;3.33;;;18.10;99.90;;;;;;5007693;28;20194;-76
2021/05/14 12:54:32;;;;;;;5.28;3.75;;;18.30;99.90;;;;;;5007023;28;20649;-77
2021/05/14 12:56:58;;;;;;;4.22;3.38;;;18.40;99.90;;;;;;5008020;28;20207;-77
2021/05/14 12:59:25;;;;;;;5.13;3.30;;;18.40;99.90;;;;;;5007944;28;20183;-76
2021/05/14 13:01:52;;;;;;;7.13;3.95;;;18.40;99.90;;;;;;5006958;28;20258;-78
2021/05/14 13:04:25;;;;;;;3.83;2.65;;;18.20;99.90;;;;;;5007066;28;20668;-77
2021/05/14 13:07:00;;;;;;;3.95;2.72;;;18.20;99.90;;;;;;5022628;28;20247;-78
2021/05/14 13:09:26;;;;;;;4.32;2.83;;;18.30;99.90;;;;;;5006101;28;20598;-77
2021/05/14 13:11:51;;;;;;;3.05;2.67;;;18.10;99.90;;;;;;5007437;28;20217;-78
2021/05/14 13:14:17;;;;;;;3.05;2.28;;;17.90;99.90;;;;;;5006505;28;20190;-78
2021/05/14 13:16:42;;;;;;;3.00;2.50;;;18.20;99.90;;;;;;5006379;28;20249;-77
2021/05/14 13:19:08;;;;;;;5.57;3.20;;;18.20;99.90;;;;;;5006338;28;20211;-77
2021/05/14 13:21:33;;;;;;;3.63;2.95;;;18.60;99.90;;;;;;5006441;28;20215;-77